createdAt,value
2022-07-31T00:02:09.548Z,6.18
2022-07-31T00:04:41.618Z,4.43
2022-07-31T00:07:12.247Z,5.35
2022-07-31T00:09:53.449Z,4.07
2022-07-31T00:12:22.917Z,5.03
2022-07-31T00:14:50.596Z,6.82
2022-07-31T00:17:20.462Z,5.55
2022-07-31T00:19:53.902Z,3.60
2022-07-31T00:22:24.029Z,3.88
2022-07-31T00:25:06.433Z,3.13
2022-07-31T00:27:41.591Z,4.38
2022-07-31T00:30:17.560Z,5.95
2022-07-31T00:32:53.380Z,7.55
2022-07-31T00:35:25.796Z,3.50
2022-07-31T00:38:02.145Z,5.93
2022-07-31T00:41:03.168Z,4.40
2022-07-31T00:43:36.258Z,5.25
2022-07-31T00:46:07.401Z,3.47
2022-07-31T00:48:44.620Z,3.47
2022-07-31T00:51:12.710Z,4.60
2022-07-31T00:53:45.458Z,3.78
2022-07-31T00:56:20.729Z,4.60
2022-07-31T00:58:52.147Z,4.88
2022-07-31T01:01:21.384Z,4.82
2022-07-31T01:03:49.393Z,7.20
2022-07-31T01:06:19.539Z,4.25
2022-07-31T01:08:58.170Z,3.47
2022-07-31T01:11:52.202Z,3.63
2022-07-31T01:14:29.952Z,4.80
2022-07-31T01:17:01.614Z,5.38
2022-07-31T01:19:43.768Z,3.35
2022-07-31T01:22:49.973Z,3.97
2022-07-31T01:25:40.587Z,6.53
2022-07-31T01:29:10.124Z,4.07
2022-07-31T01:31:51.083Z,4.88
2022-07-31T01:34:37.052Z,4.15
2022-07-31T01:37:44.353Z,3.92
2022-07-31T01:40:20.500Z,4.57
2022-07-31T01:42:58.968Z,4.43
2022-07-31T01:45:30.918Z,4.22
2022-07-31T01:48:08.478Z,6.70
2022-07-31T01:50:44.415Z,4.97
2022-07-31T01:53:31.962Z,4.90
2022-07-31T01:56:15.273Z,4.32
2022-07-31T01:58:54.186Z,4.35
2022-07-31T02:01:52.788Z,5.25
2022-07-31T02:04:28.647Z,3.67
2022-07-31T02:07:10.331Z,4.13
2022-07-31T02:09:53.707Z,6.55
2022-07-31T02:12:34.093Z,5.22
2022-07-31T02:15:18.894Z,4.90
2022-07-31T02:17:54.740Z,8.55
2022-07-31T02:20:27.324Z,5.47
2022-07-31T02:23:02.566Z,4.07
2022-07-31T02:25:38.349Z,4.90
2022-07-31T02:28:13.551Z,6.35
2022-07-31T02:30:45.309Z,6.55
2022-07-31T02:33:25.667Z,6.45
2022-07-31T02:36:02.547Z,4.32
2022-07-31T02:38:33.891Z,4.70
2022-07-31T02:41:05.472Z,6.47
2022-07-31T02:43:38.943Z,4.93
2022-07-31T02:46:21.103Z,5.32
2022-07-31T02:49:01.978Z,5.15
2022-07-31T02:51:39.709Z,5.15
2022-07-31T02:54:14.755Z,6.38
2022-07-31T02:56:46.613Z,3.53
2022-07-31T02:59:14.783Z,7.00
2022-07-31T03:01:58.010Z,6.57
2022-07-31T03:04:26.503Z,4.95
2022-07-31T03:06:55.276Z,4.95
2022-07-31T03:09:25.386Z,5.25
2022-07-31T03:12:05.926Z,7.35
2022-07-31T03:14:37.700Z,5.43
2022-07-31T03:17:07.227Z,5.38
2022-07-31T03:19:38.965Z,5.10
2022-07-31T03:22:15.184Z,4.40
2022-07-31T03:24:52.922Z,8.10
2022-07-31T03:27:28.883Z,5.40
2022-07-31T03:29:59.330Z,5.38
2022-07-31T03:32:45.323Z,5.38
2022-07-31T03:35:19.943Z,6.53
2022-07-31T03:38:41.679Z,8.50
2022-07-31T03:41:42.366Z,7.80
2022-07-31T03:44:16.324Z,8.05
2022-07-31T03:46:43.950Z,5.32
2022-07-31T03:49:22.973Z,4.35
2022-07-31T03:52:08.614Z,6.40
2022-07-31T03:54:40.047Z,6.20
2022-07-31T03:57:34.199Z,6.00
2022-07-31T04:00:04.928Z,6.82
2022-07-31T04:02:47.332Z,6.47
2022-07-31T04:05:44.324Z,13.30
2022-07-31T04:08:16.237Z,5.63
2022-07-31T04:10:44.927Z,5.53
2022-07-31T04:13:18.774Z,6.50
2022-07-31T04:15:46.490Z,6.80
2022-07-31T04:18:14.804Z,8.45
2022-07-31T04:20:47.601Z,8.98
2022-07-31T04:23:23.765Z,6.00
2022-07-31T04:26:26.400Z,6.32
2022-07-31T04:29:04.654Z,7.40
2022-07-31T04:31:32.828Z,6.20
2022-07-31T04:34:03.036Z,7.78
2022-07-31T04:36:34.342Z,8.48
2022-07-31T04:39:04.422Z,6.68
2022-07-31T04:41:34.763Z,8.23
2022-07-31T04:44:02.605Z,7.55
2022-07-31T04:46:48.087Z,5.55
2022-07-31T04:49:20.805Z,6.70
2022-07-31T04:51:50.165Z,7.82
2022-07-31T04:54:20.591Z,5.82
2022-07-31T04:56:53.688Z,5.55
2022-07-31T04:59:59.150Z,9.43
2022-07-31T05:02:24.678Z,7.38
2022-07-31T05:05:00.789Z,6.55
2022-07-31T05:07:33.211Z,6.50
2022-07-31T05:10:10.473Z,6.07
2022-07-31T05:12:40.309Z,5.70
2022-07-31T05:15:11.632Z,6.03
2022-07-31T05:17:43.620Z,7.60
2022-07-31T05:20:39.203Z,7.15
2022-07-31T05:23:27.048Z,5.40
2022-07-31T05:26:26.872Z,6.82
2022-07-31T05:28:59.748Z,7.43
2022-07-31T05:31:32.443Z,7.93
2022-07-31T05:34:03.060Z,6.85
2022-07-31T05:36:30.827Z,6.78
2022-07-31T05:39:01.153Z,6.88
2022-07-31T05:41:42.950Z,7.97
2022-07-31T05:44:42.974Z,5.57
2022-07-31T05:47:11.080Z,8.43
2022-07-31T05:49:39.420Z,9.35
2022-07-31T05:52:07.397Z,7.78
2022-07-31T05:54:47.336Z,8.43
2022-07-31T05:57:34.397Z,8.10
2022-07-31T06:00:08.953Z,7.55
2022-07-31T06:02:40.215Z,8.82
2022-07-31T06:05:24.876Z,7.80
2022-07-31T06:07:55.195Z,8.40
2022-07-31T06:10:31.062Z,11.63
2022-07-31T06:12:58.929Z,9.30
2022-07-31T06:15:27.004Z,10.10
2022-07-31T06:17:56.151Z,10.80
2022-07-31T06:20:33.269Z,10.73
2022-07-31T06:23:22.596Z,11.43
2022-07-31T06:26:06.074Z,10.13
2022-07-31T06:28:48.723Z,10.82
2022-07-31T06:31:26.476Z,12.73
2022-07-31T06:34:04.664Z,13.95
2022-07-31T06:36:45.121Z,12.18
2022-07-31T06:39:22.866Z,14.35
2022-07-31T06:41:58.373Z,13.02
2022-07-31T06:44:32.807Z,14.40
2022-07-31T06:47:22.386Z,18.67
2022-07-31T06:50:13.627Z,17.05
2022-07-31T06:52:51.296Z,14.95
2022-07-31T06:55:25.219Z,15.35
2022-07-31T06:57:52.893Z,14.48
2022-07-31T07:00:24.589Z,16.20
2022-07-31T07:02:55.482Z,16.48
2022-07-31T07:05:23.234Z,17.13
2022-07-31T07:07:56.449Z,17.80
2022-07-31T07:10:25.001Z,14.98
2022-07-31T07:13:20.404Z,18.38
2022-07-31T07:15:49.699Z,16.30
2022-07-31T07:18:22.274Z,16.83
2022-07-31T07:20:53.249Z,16.95
2022-07-31T07:23:25.786Z,17.38
2022-07-31T07:26:11.808Z,17.05
2022-07-31T07:28:41.131Z,20.45
2022-07-31T07:31:16.424Z,21.25
2022-07-31T07:33:47.922Z,18.60
2022-07-31T07:36:24.372Z,15.30
2022-07-31T07:39:05.618Z,19.95
2022-07-31T07:41:38.823Z,21.83
2022-07-31T07:44:07.708Z,18.58
2022-07-31T07:46:38.443Z,20.40
2022-07-31T07:49:09.738Z,20.25
2022-07-31T07:52:03.238Z,18.88
2022-07-31T07:54:40.367Z,19.27
2022-07-31T07:57:26.689Z,19.83
2022-07-31T08:00:09.622Z,19.05
2022-07-31T08:03:46.536Z,17.55
2022-07-31T08:05:45.175Z,18.10
2022-07-31T08:08:12.184Z,18.15
2022-07-31T08:10:43.098Z,17.42
2022-07-31T08:13:23.478Z,20.73
2022-07-31T08:15:53.374Z,19.25
2022-07-31T08:18:28.621Z,21.63
2022-07-31T08:20:55.861Z,20.33
2022-07-31T08:23:22.674Z,25.05
2022-07-31T08:25:50.172Z,24.23
2022-07-31T08:28:23.943Z,21.73
2022-07-31T08:30:51.856Z,21.45
2022-07-31T08:33:21.876Z,20.85
2022-07-31T08:35:55.807Z,19.67
2022-07-31T08:38:22.881Z,19.63
2022-07-31T08:41:18.722Z,19.60
2022-07-31T08:44:01.647Z,20.90
2022-07-31T08:46:39.179Z,19.92
2022-07-31T08:49:09.782Z,21.05
2022-07-31T08:51:50.883Z,23.38
2022-07-31T08:54:26.182Z,24.35
2022-07-31T08:56:53.940Z,21.45
2022-07-31T08:59:22.199Z,18.00
2022-07-31T09:01:49.288Z,20.10
2022-07-31T09:04:16.353Z,22.20
2022-07-31T09:06:43.785Z,19.52
2022-07-31T09:09:10.596Z,23.25
2022-07-31T09:11:50.189Z,24.70
2022-07-31T09:14:47.202Z,21.75
2022-07-31T09:17:15.840Z,25.30
2022-07-31T09:19:53.881Z,23.95
2022-07-31T09:22:28.664Z,26.73
2022-07-31T09:25:16.009Z,24.63
2022-07-31T09:27:43.224Z,24.73
2022-07-31T09:30:11.676Z,23.92
2022-07-31T09:32:57.308Z,23.30
2022-07-31T09:35:52.490Z,24.92
2022-07-31T09:38:20.631Z,24.80
2022-07-31T09:41:56.258Z,22.58
2022-07-31T09:44:11.206Z,23.25
2022-07-31T09:46:41.878Z,20.88
2022-07-31T09:49:09.615Z,26.45
2022-07-31T09:51:49.740Z,24.75
2022-07-31T09:54:26.630Z,24.90
2022-07-31T09:57:12.278Z,24.13
2022-07-31T09:59:48.779Z,22.73
2022-07-31T10:02:19.149Z,17.95
2022-07-31T10:04:50.772Z,23.15
2022-07-31T10:07:31.993Z,19.75
2022-07-31T10:10:08.625Z,22.00
2022-07-31T10:13:05.627Z,20.08
2022-07-31T10:15:37.243Z,22.80
2022-07-31T10:18:36.494Z,21.00
2022-07-31T10:21:35.800Z,22.83
2022-07-31T10:24:19.886Z,21.05
2022-07-31T10:27:10.843Z,22.88
2022-07-31T10:29:41.744Z,25.38
2022-07-31T10:32:09.882Z,25.08
2022-07-31T10:34:45.772Z,23.45
2022-07-31T10:37:56.459Z,20.02
2022-07-31T10:41:03.936Z,23.60
2022-07-31T10:43:45.814Z,19.42
2022-07-31T10:46:38.183Z,18.75
2022-07-31T10:49:47.817Z,17.85
2022-07-31T10:52:37.060Z,16.88
2022-07-31T10:55:27.359Z,17.77
2022-07-31T10:58:19.744Z,17.02
2022-07-31T11:01:09.392Z,20.38
2022-07-31T11:03:46.689Z,17.95
2022-07-31T11:06:21.585Z,16.95
2022-07-31T11:08:55.321Z,17.20
2022-07-31T11:11:42.992Z,16.63
2022-07-31T11:14:34.881Z,17.60
2022-07-31T11:18:20.194Z,17.77
2022-07-31T11:20:32.297Z,23.27
2022-07-31T11:23:06.454Z,17.48
2022-07-31T11:25:37.062Z,15.88
2022-07-31T11:28:30.013Z,15.23
2022-07-31T11:31:00.238Z,18.90
2022-07-31T11:33:44.956Z,16.33
2022-07-31T11:36:27.067Z,17.98
2022-07-31T11:39:00.480Z,15.55
2022-07-31T11:41:30.306Z,18.90
2022-07-31T11:44:08.462Z,16.02
2022-07-31T11:46:37.958Z,15.60
2022-07-31T11:49:07.469Z,16.92
2022-07-31T11:51:34.317Z,13.70
2022-07-31T11:54:01.112Z,14.85
2022-07-31T11:56:28.653Z,14.82
2022-07-31T11:58:58.374Z,13.20
2022-07-31T12:01:28.923Z,17.98
2022-07-31T12:04:08.562Z,32.97
2022-07-31T12:06:37.191Z,16.15
2022-07-31T12:09:04.473Z,13.30
2022-07-31T12:11:31.577Z,14.25
2022-07-31T12:13:59.352Z,14.18
2022-07-31T12:16:39.531Z,12.52
2022-07-31T12:19:06.437Z,12.18
2022-07-31T12:21:40.485Z,16.35
2022-07-31T12:24:13.283Z,12.35
2022-07-31T12:26:53.755Z,12.77
2022-07-31T12:29:32.303Z,11.55
2022-07-31T12:31:59.748Z,11.88
2022-07-31T12:34:39.602Z,13.70
2022-07-31T12:37:22.298Z,13.07
2022-07-31T12:40:00.869Z,12.20
2022-07-31T12:42:41.890Z,16.70
2022-07-31T12:45:17.924Z,11.30
2022-07-31T12:47:51.134Z,11.10
2022-07-31T12:50:26.808Z,11.95
2022-07-31T12:52:57.079Z,8.90
2022-07-31T12:55:24.280Z,9.55
2022-07-31T12:57:52.239Z,8.10
2022-07-31T13:00:24.354Z,7.63
2022-07-31T13:02:53.655Z,9.27
2022-07-31T13:05:22.241Z,9.98
2022-07-31T13:07:49.899Z,7.40
2022-07-31T13:10:20.882Z,6.15
2022-07-31T13:12:52.218Z,8.57
2022-07-31T13:15:23.190Z,5.30
2022-07-31T13:17:50.345Z,8.80
2022-07-31T13:20:18.950Z,6.90
2022-07-31T13:22:45.752Z,6.20
2022-07-31T13:25:12.961Z,8.10
2022-07-31T13:27:41.477Z,7.43
2022-07-31T13:30:10.185Z,8.15
2022-07-31T13:32:37.299Z,7.32
2022-07-31T13:35:27.163Z,7.38
2022-07-31T13:37:53.728Z,6.28
2022-07-31T13:40:40.625Z,6.78
2022-07-31T13:43:07.576Z,7.97
2022-07-31T13:45:37.407Z,5.40
2022-07-31T13:48:09.254Z,5.10
2022-07-31T13:50:40.138Z,9.60
2022-07-31T13:53:07.718Z,5.40
2022-07-31T13:55:34.725Z,10.57
2022-07-31T13:58:06.112Z,7.70
2022-07-31T14:00:32.983Z,6.47
2022-07-31T14:03:00.005Z,5.10
2022-07-31T14:05:27.770Z,7.72
2022-07-31T14:07:56.338Z,8.40
2022-07-31T14:10:43.763Z,5.60
2022-07-31T14:13:16.628Z,5.47
2022-07-31T14:15:47.079Z,6.63
2022-07-31T14:18:14.242Z,5.82
2022-07-31T14:20:43.477Z,7.43
2022-07-31T14:23:10.536Z,7.25
2022-07-31T14:25:39.398Z,7.82
2022-07-31T14:28:08.582Z,6.97
2022-07-31T14:30:37.123Z,6.82
2022-07-31T14:33:05.103Z,4.32
2022-07-31T14:35:33.478Z,7.70
2022-07-31T14:38:03.907Z,7.70
2022-07-31T14:40:31.450Z,8.57
2022-07-31T14:42:58.866Z,6.20
2022-07-31T14:45:25.834Z,4.60
2022-07-31T14:47:55.077Z,8.57
2022-07-31T14:50:23.212Z,5.35
2022-07-31T14:52:50.291Z,6.50
2022-07-31T14:55:17.165Z,5.85
2022-07-31T14:57:43.935Z,5.25
2022-07-31T15:00:15.436Z,5.10
2022-07-31T15:02:43.378Z,6.68
2022-07-31T15:06:51.000Z,5.88
2022-07-31T15:07:59.336Z,7.63
2022-07-31T15:10:26.219Z,4.50
2022-07-31T15:12:58.955Z,5.80
2022-07-31T15:15:25.786Z,8.32
2022-07-31T15:17:56.788Z,5.45
2022-07-31T15:20:32.655Z,7.30
2022-07-31T15:22:59.957Z,6.50
2022-07-31T15:25:26.984Z,7.32
2022-07-31T15:27:53.800Z,7.57
2022-07-31T15:30:21.484Z,6.22
2022-07-31T15:32:48.459Z,8.02
2022-07-31T15:35:15.349Z,6.53
2022-07-31T15:37:44.749Z,4.82
2022-07-31T15:40:14.705Z,5.43
2022-07-31T15:42:45.836Z,5.88
2022-07-31T15:45:19.668Z,7.18
2022-07-31T15:47:47.848Z,6.95
2022-07-31T15:50:21.077Z,5.40
2022-07-31T15:52:49.528Z,7.38
2022-07-31T15:55:17.363Z,6.85
2022-07-31T15:57:46.908Z,6.88
2022-07-31T16:00:14.708Z,7.70
2022-07-31T16:02:43.004Z,10.90
2022-07-31T16:05:21.939Z,11.45
2022-07-31T16:08:29.794Z,11.23
2022-07-31T16:10:46.023Z,9.30
2022-07-31T16:13:12.783Z,8.27
2022-07-31T16:15:39.667Z,8.32
2022-07-31T16:18:06.574Z,9.98
2022-07-31T16:20:36.024Z,6.13
2022-07-31T16:23:02.947Z,8.25
2022-07-31T16:25:34.516Z,8.25
2022-07-31T16:28:04.086Z,7.03
2022-07-31T16:30:32.055Z,6.55
2022-07-31T16:32:59.008Z,8.85
2022-07-31T16:35:29.161Z,7.78
2022-07-31T16:37:56.144Z,7.32
2022-07-31T16:40:28.315Z,6.93
2022-07-31T16:43:50.540Z,8.85
2022-07-31T16:45:55.667Z,8.98
2022-07-31T16:48:23.088Z,7.60
2022-07-31T16:50:54.384Z,7.70
2022-07-31T16:54:10.755Z,9.20
2022-07-31T16:56:16.867Z,7.45
2022-07-31T16:58:43.984Z,10.25
2022-07-31T17:02:00.140Z,8.75
2022-07-31T17:04:04.250Z,7.03
2022-07-31T17:06:37.917Z,9.23
2022-07-31T17:09:16.346Z,8.18
2022-07-31T17:11:51.619Z,8.23
2022-07-31T17:14:21.380Z,11.05
2022-07-31T17:16:49.943Z,8.07
2022-07-31T17:19:41.881Z,12.13
2022-07-31T17:22:07.870Z,9.38
2022-07-31T17:24:37.305Z,8.98
2022-07-31T17:27:09.614Z,6.05
2022-07-31T17:29:38.336Z,7.13
2022-07-31T17:32:05.892Z,8.98
2022-07-31T17:34:35.288Z,6.40
2022-07-31T17:37:02.439Z,10.43
2022-07-31T17:39:31.146Z,8.05
2022-07-31T17:42:01.988Z,10.70
2022-07-31T17:44:29.627Z,8.85
2022-07-31T17:47:01.386Z,10.63
2022-07-31T17:49:32.748Z,9.30
2022-07-31T17:52:00.498Z,7.28
2022-07-31T17:54:30.133Z,11.23
2022-07-31T17:56:57.238Z,11.88
2022-07-31T17:59:25.256Z,11.07
2022-07-31T18:01:59.614Z,11.80
2022-07-31T18:04:29.816Z,7.43
2022-07-31T18:06:58.550Z,8.55
2022-07-31T18:09:26.994Z,9.90
2022-07-31T18:11:54.684Z,9.75
2022-07-31T18:14:24.447Z,8.13
2022-07-31T18:16:52.415Z,7.55
2022-07-31T18:19:21.221Z,8.68
2022-07-31T18:21:48.517Z,7.55
2022-07-31T18:24:15.319Z,11.90
2022-07-31T18:26:44.398Z,16.58
2022-07-31T18:29:11.326Z,11.45
2022-07-31T18:31:38.534Z,8.80
2022-07-31T18:34:06.504Z,8.50
2022-07-31T18:36:35.001Z,7.05
2022-07-31T18:39:03.427Z,10.20
2022-07-31T18:41:30.966Z,13.55
2022-07-31T18:44:01.559Z,9.27
2022-07-31T18:46:28.971Z,10.43
2022-07-31T18:48:59.234Z,10.75
2022-07-31T18:51:28.523Z,15.70
2022-07-31T18:54:07.496Z,11.13
2022-07-31T18:56:34.443Z,11.55
2022-07-31T18:59:01.290Z,6.88
2022-07-31T19:01:28.125Z,13.43
2022-07-31T19:03:55.272Z,10.57
2022-07-31T19:06:25.451Z,11.30
2022-07-31T19:08:52.645Z,9.07
2022-07-31T19:11:20.487Z,9.13
2022-07-31T19:13:47.328Z,11.75
2022-07-31T19:16:15.767Z,10.10
2022-07-31T19:18:44.971Z,10.07
2022-07-31T19:21:22.618Z,12.57
2022-07-31T19:24:01.923Z,10.95
2022-07-31T19:26:30.976Z,8.90
2022-07-31T19:28:57.784Z,10.15
2022-07-31T19:31:24.582Z,10.75
2022-07-31T19:33:51.396Z,10.52
2022-07-31T19:36:18.179Z,15.63
2022-07-31T19:38:45.079Z,10.13
2022-07-31T19:41:13.625Z,8.45
2022-07-31T19:43:40.629Z,14.52
2022-07-31T19:46:11.728Z,13.60
2022-07-31T19:48:45.276Z,13.00
2022-07-31T19:51:15.649Z,10.38
2022-07-31T19:53:44.467Z,15.27
2022-07-31T19:56:19.697Z,12.48
2022-07-31T19:58:47.759Z,14.10
2022-07-31T20:01:14.631Z,14.20
2022-07-31T20:03:41.864Z,14.35
2022-07-31T20:06:09.064Z,13.02
2022-07-31T20:08:36.102Z,13.45
2022-07-31T20:11:04.557Z,11.65
2022-07-31T20:13:37.556Z,12.27
2022-07-31T20:16:04.921Z,11.65
2022-07-31T20:18:31.738Z,12.18
2022-07-31T20:21:09.146Z,12.57
2022-07-31T20:23:44.203Z,11.00
2022-07-31T20:26:16.240Z,8.95
2022-07-31T20:28:44.225Z,11.50
2022-07-31T20:31:18.430Z,13.80
2022-07-31T20:33:56.457Z,11.27
2022-07-31T20:36:26.509Z,12.13
2022-07-31T20:38:58.605Z,7.88
2022-07-31T20:41:27.279Z,12.48
2022-07-31T20:43:56.876Z,12.05
2022-07-31T20:46:27.609Z,14.20
2022-07-31T20:48:57.134Z,12.27
2022-07-31T20:51:24.404Z,15.40
2022-07-31T20:53:55.753Z,12.70
2022-07-31T20:56:23.146Z,10.90
2022-07-31T20:58:51.914Z,14.77
2022-07-31T21:01:20.423Z,15.32
2022-07-31T21:03:47.843Z,11.23
2022-07-31T21:06:14.930Z,13.55
2022-07-31T21:08:45.551Z,8.82
2022-07-31T21:11:12.532Z,15.57
2022-07-31T21:13:39.920Z,9.85
2022-07-31T21:16:09.308Z,9.48
2022-07-31T21:18:39.974Z,11.77
2022-07-31T21:21:09.510Z,10.10
2022-07-31T21:23:38.665Z,15.73
2022-07-31T21:26:07.590Z,11.50
2022-07-31T21:28:35.184Z,10.48
2022-07-31T21:31:02.293Z,17.67
2022-07-31T21:33:29.318Z,12.95
2022-07-31T21:35:56.706Z,12.98
2022-07-31T21:38:24.498Z,9.43
2022-07-31T21:40:51.840Z,9.07
2022-07-31T21:43:22.517Z,11.30
2022-07-31T21:45:57.733Z,11.68
2022-07-31T21:48:31.074Z,8.98
2022-07-31T21:51:00.077Z,9.48
2022-07-31T21:53:27.278Z,9.27
2022-07-31T21:55:54.118Z,10.50
2022-07-31T21:58:20.921Z,7.78
2022-07-31T22:00:47.961Z,9.55
2022-07-31T22:03:14.878Z,10.57
2022-07-31T22:06:00.411Z,7.07
2022-07-31T22:08:27.488Z,6.75
2022-07-31T22:10:54.421Z,8.43
2022-07-31T22:13:21.496Z,6.25
2022-07-31T22:15:50.535Z,6.40
2022-07-31T22:18:32.543Z,8.98
2022-07-31T22:21:01.910Z,6.50
2022-07-31T22:23:29.555Z,5.57
2022-07-31T22:25:57.077Z,4.85
2022-07-31T22:28:26.713Z,6.55
2022-07-31T22:30:56.018Z,6.70
2022-07-31T22:33:23.623Z,4.13
2022-07-31T22:35:59.633Z,4.10
2022-07-31T22:38:29.477Z,5.55
2022-07-31T22:40:57.746Z,4.55
2022-07-31T22:44:10.985Z,4.03
2022-07-31T22:46:13.371Z,3.60
2022-07-31T22:48:40.827Z,3.53
2022-07-31T22:51:09.049Z,5.05
2022-07-31T22:53:37.616Z,3.80
2022-07-31T22:56:04.687Z,4.03
2022-07-31T22:58:31.759Z,3.67
2022-07-31T23:00:58.575Z,6.22
2022-07-31T23:03:25.403Z,3.55
2022-07-31T23:06:28.045Z,3.92
2022-07-31T23:08:39.020Z,5.57
2022-07-31T23:11:05.927Z,5.20
2022-07-31T23:13:32.763Z,3.00
2022-07-31T23:15:59.743Z,3.90
2022-07-31T23:18:27.451Z,3.28
2022-07-31T23:20:54.241Z,6.15
2022-07-31T23:23:21.053Z,3.55
2022-07-31T23:25:47.820Z,4.28
2022-07-31T23:28:14.599Z,3.30
2022-07-31T23:30:41.409Z,3.50
2022-07-31T23:33:08.217Z,3.75
2022-07-31T23:35:38.496Z,3.92
2022-07-31T23:38:05.286Z,3.90
2022-07-31T23:40:32.193Z,5.65
2022-07-31T23:42:59.013Z,4.53
2022-07-31T23:45:26.094Z,3.80
2022-07-31T23:47:54.487Z,5.30
2022-07-31T23:50:25.977Z,3.47
2022-07-31T23:52:52.992Z,3.90
2022-07-31T23:55:20.089Z,5.28
2022-07-31T23:57:47.624Z,4.72
